createdAt,value
2023-04-18T00:00:52.494Z,484.00
2023-04-18T00:01:52.711Z,485.00
2023-04-18T00:02:52.842Z,483.00
2023-04-18T00:03:52.849Z,481.00
2023-04-18T00:04:52.772Z,481.00
2023-04-18T00:05:52.737Z,481.00
2023-04-18T00:06:52.763Z,483.00
2023-04-18T00:07:52.858Z,483.00
2023-04-18T00:08:52.858Z,483.00
2023-04-18T00:09:52.933Z,482.00
2023-04-18T00:10:52.953Z,483.00
2023-04-18T00:11:53.017Z,482.00
2023-04-18T00:12:53.093Z,481.00
2023-04-18T00:13:53.108Z,482.00
2023-04-18T00:14:53.166Z,483.00
2023-04-18T00:15:53.215Z,483.00
2023-04-18T00:16:53.283Z,485.00
2023-04-18T00:17:53.409Z,483.00
2023-04-18T00:18:53.337Z,483.00
2023-04-18T00:19:53.392Z,480.00
2023-04-18T00:20:53.430Z,481.00
2023-04-18T00:21:53.490Z,481.00
2023-04-18T00:22:53.550Z,480.00
2023-04-18T00:23:53.606Z,477.00
2023-04-18T00:24:53.668Z,477.00
2023-04-18T00:25:53.874Z,481.00
2023-04-18T00:26:53.774Z,483.00
2023-04-18T00:27:53.851Z,484.00
2023-04-18T00:28:53.884Z,483.00
2023-04-18T00:29:53.941Z,486.00
2023-04-18T00:30:54.034Z,485.00
2023-04-18T00:31:54.049Z,487.00
2023-04-18T00:32:54.098Z,485.00
2023-04-18T00:33:54.138Z,483.00
2023-04-18T00:34:54.190Z,482.00
2023-04-18T00:35:54.236Z,480.00
2023-04-18T00:36:54.297Z,478.00
2023-04-18T00:37:54.346Z,476.00
2023-04-18T00:38:54.382Z,476.00
2023-04-18T00:39:54.445Z,476.00
2023-04-18T00:40:54.494Z,476.00
2023-04-18T00:41:54.597Z,476.00
2023-04-18T00:42:55.460Z,477.00
2023-04-18T00:43:54.599Z,480.00
2023-04-18T00:44:54.652Z,478.00
2023-04-18T00:45:54.682Z,477.00
2023-04-18T00:46:54.716Z,474.00
2023-04-18T00:47:54.801Z,473.00
2023-04-18T00:48:54.794Z,471.00
2023-04-18T00:49:54.841Z,469.00
2023-04-18T00:50:54.889Z,469.00
2023-04-18T00:51:54.952Z,468.00
2023-04-18T00:52:55.017Z,469.00
2023-04-18T00:53:55.062Z,471.00
2023-04-18T00:54:55.112Z,471.00
2023-04-18T00:55:55.135Z,473.00
2023-04-18T00:56:55.169Z,474.00
2023-04-18T00:57:55.212Z,473.00
2023-04-18T00:58:55.230Z,474.00
2023-04-18T00:59:55.300Z,473.00
2023-04-18T01:00:55.345Z,476.00
2023-04-18T01:01:55.544Z,475.00
2023-04-18T01:02:55.792Z,476.00
2023-04-18T01:03:55.564Z,477.00
2023-04-18T01:04:55.514Z,477.00
2023-04-18T01:05:55.561Z,476.00
2023-04-18T01:06:55.594Z,478.00
2023-04-18T01:07:55.626Z,476.00
2023-04-18T01:08:55.665Z,476.00
2023-04-18T01:09:55.721Z,476.00
2023-04-18T01:10:55.781Z,477.00
2023-04-18T01:11:56.105Z,474.00
2023-04-18T01:12:55.888Z,473.00
2023-04-18T01:13:55.972Z,474.00
2023-04-18T01:14:56.010Z,477.00
2023-04-18T01:15:56.109Z,477.00
2023-04-18T01:16:56.102Z,477.00
2023-04-18T01:17:56.444Z,476.00
2023-04-18T01:18:56.175Z,476.00
2023-04-18T01:19:56.202Z,478.00
2023-04-18T01:20:56.254Z,474.00
2023-04-18T01:21:56.296Z,473.00
2023-04-18T01:22:56.692Z,471.00
2023-04-18T01:23:56.404Z,476.00
2023-04-18T01:24:56.451Z,476.00
2023-04-18T01:25:56.511Z,475.00
2023-04-18T01:26:56.571Z,474.00
2023-04-18T01:27:56.622Z,476.00
2023-04-18T01:28:56.677Z,476.00
2023-04-18T01:29:56.753Z,476.00
2023-04-18T01:30:56.841Z,478.00
2023-04-18T01:31:56.847Z,479.00
2023-04-18T01:32:56.961Z,478.00
2023-04-18T01:33:56.950Z,476.00
2023-04-18T01:34:56.980Z,475.00
2023-04-18T01:35:57.031Z,476.00
2023-04-18T01:36:57.054Z,479.00
2023-04-18T01:37:57.089Z,482.00
2023-04-18T01:38:57.133Z,481.00
2023-04-18T01:39:57.169Z,480.00
2023-04-18T01:40:57.195Z,477.00
2023-04-18T01:41:57.228Z,473.00
2023-04-18T01:42:57.288Z,472.00
2023-04-18T01:43:57.341Z,470.00
2023-04-18T01:44:57.391Z,471.00
2023-04-18T01:45:57.496Z,469.00
2023-04-18T01:46:57.498Z,469.00
2023-04-18T01:47:57.560Z,468.00
2023-04-18T01:48:57.586Z,468.00
2023-04-18T01:49:57.654Z,469.00
2023-04-18T01:50:57.719Z,471.00
2023-04-18T01:51:58.248Z,471.00
2023-04-18T01:52:57.812Z,472.00
2023-04-18T01:53:57.878Z,473.00
2023-04-18T01:54:57.944Z,473.00
2023-04-18T01:55:58.014Z,472.00
2023-04-18T01:56:58.069Z,473.00
2023-04-18T01:57:58.141Z,470.00
2023-04-18T01:58:58.197Z,468.00
2023-04-18T01:59:58.261Z,473.00
2023-04-18T02:00:58.340Z,475.00
2023-04-18T02:01:58.519Z,474.00
2023-04-18T02:02:58.570Z,475.00
2023-04-18T02:03:58.992Z,476.00
2023-04-18T02:04:58.576Z,479.00
2023-04-18T02:05:58.647Z,476.00
2023-04-18T02:06:58.718Z,478.00
2023-04-18T02:07:58.769Z,478.00
2023-04-18T02:08:58.831Z,477.00
2023-04-18T02:09:58.896Z,475.00
2023-04-18T02:10:58.962Z,477.00
2023-04-18T02:11:59.021Z,476.00
2023-04-18T02:12:59.086Z,475.00
2023-04-18T02:13:59.145Z,479.00
2023-04-18T02:14:59.206Z,481.00
2023-04-18T02:15:59.300Z,481.00
2023-04-18T02:16:59.324Z,480.00
2023-04-18T02:17:59.479Z,478.00
2023-04-18T02:18:59.444Z,477.00
2023-04-18T02:19:59.502Z,473.00
2023-04-18T02:20:59.571Z,471.00
2023-04-18T02:21:59.622Z,464.00
2023-04-18T02:22:59.688Z,461.00
2023-04-18T02:23:59.746Z,460.00
2023-04-18T02:24:59.814Z,459.00
2023-04-18T02:25:59.882Z,458.00
2023-04-18T02:26:59.953Z,459.00
2023-04-18T02:28:00.045Z,462.00
2023-04-18T02:29:00.062Z,466.00
2023-04-18T02:30:00.173Z,469.00
2023-04-18T02:31:00.186Z,466.00
2023-04-18T02:32:00.300Z,464.00
2023-04-18T02:33:00.343Z,465.00
2023-04-18T02:34:00.368Z,464.00
2023-04-18T02:35:00.409Z,464.00
2023-04-18T02:36:00.453Z,462.00
2023-04-18T02:37:00.576Z,460.00
2023-04-18T02:38:00.593Z,463.00
2023-04-18T02:39:00.736Z,461.00
2023-04-18T02:40:00.692Z,465.00
2023-04-18T02:41:00.737Z,463.00
2023-04-18T02:42:00.792Z,462.00
2023-04-18T02:43:00.831Z,464.00
2023-04-18T02:44:01.004Z,465.00
2023-04-18T02:45:00.936Z,466.00
2023-04-18T02:46:01.011Z,464.00
2023-04-18T02:47:01.024Z,463.00
2023-04-18T02:48:01.068Z,461.00
2023-04-18T02:49:01.135Z,465.00
2023-04-18T02:50:01.178Z,465.00
2023-04-18T02:51:01.205Z,467.00
2023-04-18T02:52:01.268Z,466.00
2023-04-18T02:53:01.300Z,467.00
2023-04-18T02:54:01.345Z,465.00
2023-04-18T02:55:01.418Z,465.00
2023-04-18T02:56:01.481Z,468.00
2023-04-18T02:57:01.550Z,469.00
2023-04-18T02:58:01.608Z,471.00
2023-04-18T02:59:01.676Z,468.00
2023-04-18T03:00:01.729Z,466.00
2023-04-18T03:01:01.821Z,464.00
2023-04-18T03:02:01.907Z,467.00
2023-04-18T03:03:02.070Z,463.00
2023-04-18T03:04:01.998Z,465.00
2023-04-18T03:05:02.176Z,466.00
2023-04-18T03:06:02.171Z,464.00
2023-04-18T03:07:02.200Z,465.00
2023-04-18T03:08:02.281Z,466.00
2023-04-18T03:09:02.331Z,467.00
2023-04-18T03:10:02.406Z,466.00
2023-04-18T03:11:02.422Z,468.00
2023-04-18T03:12:02.469Z,470.00
2023-04-18T03:13:02.505Z,469.00
2023-04-18T03:14:02.547Z,470.00
2023-04-18T03:15:02.581Z,471.00
2023-04-18T03:16:02.701Z,471.00
2023-04-18T03:17:02.726Z,470.00
2023-04-18T03:18:03.039Z,471.00
2023-04-18T03:19:02.827Z,473.00
2023-04-18T03:20:02.898Z,473.00
2023-04-18T03:21:02.971Z,473.00
2023-04-18T03:22:03.067Z,473.00
2023-04-18T03:23:03.149Z,473.00
2023-04-18T03:24:03.196Z,472.00
2023-04-18T03:25:03.235Z,472.00
2023-04-18T03:28:40.735Z,466.00
2023-04-18T03:29:41.777Z,468.00
2023-04-18T03:30:41.844Z,468.00
2023-04-18T03:31:41.947Z,468.00
2023-04-18T03:32:42.029Z,471.00
2023-04-18T03:33:41.958Z,472.00
2023-04-18T03:34:41.986Z,470.00
2023-04-18T03:35:41.997Z,471.00
2023-04-18T03:36:42.033Z,469.00
2023-04-18T03:37:42.084Z,471.00
2023-04-18T03:38:42.092Z,470.00
2023-04-18T03:39:42.147Z,470.00
2023-04-18T03:40:42.147Z,469.00
2023-04-18T03:41:42.172Z,468.00
2023-04-18T03:42:42.197Z,465.00
2023-04-18T03:43:42.222Z,466.00
2023-04-18T03:44:42.243Z,467.00
2023-04-18T03:45:42.262Z,464.00
2023-04-18T03:46:42.342Z,466.00
2023-04-18T03:47:42.348Z,465.00
2023-04-18T03:48:42.352Z,465.00
2023-04-18T03:49:42.383Z,463.00
2023-04-18T03:50:42.368Z,463.00
2023-04-18T03:51:42.375Z,463.00
2023-04-18T03:52:42.390Z,461.00
2023-04-18T03:53:42.432Z,462.00
2023-04-18T03:54:42.443Z,463.00
2023-04-18T03:55:42.459Z,465.00
2023-04-18T03:56:42.459Z,468.00
2023-04-18T03:57:42.484Z,467.00
2023-04-18T03:58:42.498Z,465.00
2023-04-18T03:59:42.587Z,464.00
2023-04-18T04:00:42.540Z,462.00
2023-04-18T04:01:42.595Z,465.00
2023-04-18T04:02:42.735Z,466.00
2023-04-18T04:03:42.747Z,467.00
2023-04-18T04:04:42.660Z,467.00
2023-04-18T04:05:42.607Z,466.00
2023-04-18T04:06:42.627Z,467.00
2023-04-18T04:07:42.642Z,469.00
2023-04-18T04:08:42.667Z,470.00
2023-04-18T04:09:42.704Z,472.00
2023-04-18T04:10:42.680Z,472.00
2023-04-18T04:11:42.704Z,472.00
2023-04-18T04:12:43.199Z,473.00
2023-04-18T04:13:42.741Z,474.00
2023-04-18T04:14:42.785Z,475.00
2023-04-18T04:15:42.763Z,474.00
2023-04-18T04:16:42.824Z,472.00
2023-04-18T04:17:42.809Z,472.00
2023-04-18T04:18:42.799Z,471.00
2023-04-18T04:19:42.868Z,473.00
2023-04-18T04:20:42.838Z,471.00
2023-04-18T04:21:42.849Z,471.00
2023-04-18T04:22:42.848Z,466.00
2023-04-18T04:23:42.924Z,467.00
2023-04-18T04:24:42.908Z,466.00
2023-04-18T04:25:42.907Z,466.00
2023-04-18T04:26:42.896Z,468.00
2023-04-18T04:27:42.915Z,467.00
2023-04-18T04:28:42.922Z,464.00
2023-04-18T04:29:42.958Z,465.00
2023-04-18T04:30:42.964Z,464.00
2023-04-18T04:31:43.006Z,467.00
2023-04-18T04:32:43.061Z,467.00
2023-04-18T04:33:43.041Z,467.00
2023-04-18T04:34:43.076Z,468.00
2023-04-18T04:35:43.106Z,468.00
2023-04-18T04:36:43.143Z,467.00
2023-04-18T04:37:43.226Z,465.00
2023-04-18T04:38:43.186Z,469.00
2023-04-18T04:39:43.213Z,471.00
2023-04-18T04:40:43.250Z,468.00
2023-04-18T04:41:43.325Z,470.00
2023-04-18T04:42:43.272Z,470.00
2023-04-18T04:43:43.311Z,471.00
2023-04-18T04:44:43.355Z,471.00
2023-04-18T04:45:43.374Z,473.00
2023-04-18T04:46:43.328Z,474.00
2023-04-18T04:47:43.390Z,472.00
2023-04-18T04:48:43.393Z,472.00
2023-04-18T04:49:43.494Z,473.00
2023-04-18T04:50:43.476Z,471.00
2023-04-18T04:51:43.478Z,471.00
2023-04-18T04:52:43.500Z,470.00
2023-04-18T04:53:43.554Z,468.00
2023-04-18T04:54:43.665Z,469.00
2023-04-18T04:55:43.627Z,472.00
2023-04-18T04:56:43.697Z,473.00
2023-04-18T04:57:43.736Z,470.00
2023-04-18T04:58:43.753Z,473.00
2023-04-18T04:59:43.808Z,474.00
2023-04-18T05:00:43.841Z,473.00
2023-04-18T05:01:43.977Z,470.00
2023-04-18T05:02:44.081Z,467.00
2023-04-18T05:03:44.103Z,467.00
2023-04-18T05:04:43.954Z,467.00
2023-04-18T05:05:43.967Z,466.00
2023-04-18T05:06:43.974Z,464.00
2023-04-18T05:07:44.009Z,461.00
2023-04-18T05:08:44.031Z,464.00
2023-04-18T05:09:44.119Z,464.00
2023-04-18T05:10:44.137Z,462.00
2023-04-18T05:11:44.173Z,460.00
2023-04-18T05:12:44.200Z,458.00
2023-04-18T05:13:44.243Z,459.00
2023-04-18T05:14:44.276Z,458.00
2023-04-18T05:15:44.240Z,454.00
2023-04-18T05:16:44.335Z,454.00
2023-04-18T05:17:44.759Z,452.00
2023-04-18T05:18:44.307Z,451.00
2023-04-18T05:19:44.732Z,449.00
2023-04-18T05:20:44.332Z,451.00
2023-04-18T05:21:44.355Z,459.00
2023-04-18T05:22:44.418Z,461.00
2023-04-18T05:23:44.380Z,459.00
2023-04-18T05:24:44.752Z,452.00
2023-04-18T05:25:44.498Z,449.00
2023-04-18T05:26:44.439Z,448.00
2023-04-18T05:27:44.451Z,452.00
2023-04-18T05:28:44.466Z,450.00
2023-04-18T05:29:44.566Z,449.00
2023-04-18T05:30:44.739Z,447.00
2023-04-18T05:31:44.504Z,444.00
2023-04-18T05:32:44.564Z,444.00
2023-04-18T05:33:44.565Z,445.00
2023-04-18T05:34:44.544Z,446.00
2023-04-18T05:35:45.216Z,448.00
2023-04-18T05:36:44.567Z,448.00
2023-04-18T05:37:44.586Z,445.00
2023-04-18T05:38:44.714Z,446.00
2023-04-18T05:39:44.748Z,443.00
2023-04-18T05:40:44.693Z,445.00
2023-04-18T05:41:44.745Z,448.00
2023-04-18T05:42:44.771Z,457.00
2023-04-18T05:43:51.143Z,466.00
2023-04-18T05:44:44.816Z,471.00
2023-04-18T05:45:44.853Z,485.00
2023-04-18T05:46:44.880Z,495.00
2023-04-18T05:47:44.890Z,493.00
2023-04-18T05:48:45.246Z,494.00
2023-04-18T05:49:45.744Z,499.00
2023-04-18T05:50:44.858Z,504.00
2023-04-18T05:51:44.866Z,514.00
2023-04-18T05:52:44.884Z,525.00
2023-04-18T05:53:45.221Z,580.00
2023-04-18T05:54:44.892Z,603.00
2023-04-18T05:55:44.935Z,612.00
2023-04-18T05:56:44.924Z,616.00
2023-04-18T05:57:44.939Z,623.00
2023-04-18T05:58:45.237Z,661.00
2023-04-18T05:59:44.902Z,703.00
2023-04-18T06:00:45.229Z,708.00
2023-04-18T06:01:44.937Z,712.00
2023-04-18T06:02:45.007Z,727.00
2023-04-18T06:03:45.419Z,751.00
2023-04-18T06:04:45.171Z,776.00
2023-04-18T06:05:44.974Z,785.00
2023-04-18T06:06:44.901Z,800.00
2023-04-18T06:07:44.897Z,808.00
2023-04-18T06:08:45.294Z,816.00
2023-04-18T06:09:45.253Z,822.00
2023-04-18T06:10:44.890Z,840.00
2023-04-18T06:11:44.910Z,849.00
2023-04-18T06:12:44.877Z,856.00
2023-04-18T06:13:45.253Z,864.00
2023-04-18T06:14:45.332Z,872.00
2023-04-18T06:15:45.752Z,877.00
2023-04-18T06:16:45.467Z,886.00
2023-04-18T06:17:45.491Z,891.00
2023-04-18T06:18:45.299Z,894.00
2023-04-18T06:19:45.494Z,896.00
2023-04-18T06:20:45.838Z,898.00
2023-04-18T06:21:45.430Z,901.00
2023-04-18T06:22:45.799Z,900.00
2023-04-18T06:23:45.861Z,901.00
2023-04-18T06:24:45.894Z,903.00
2023-04-18T06:25:46.301Z,906.00
2023-04-18T06:26:45.492Z,907.00
2023-04-18T06:27:45.650Z,909.00
2023-04-18T06:28:46.036Z,910.00
2023-04-18T06:29:45.984Z,914.00
2023-04-18T06:30:46.108Z,913.00
2023-04-18T06:31:46.191Z,921.00
2023-04-18T06:32:46.140Z,923.00
2023-04-18T06:33:46.193Z,915.00
2023-04-18T06:34:46.578Z,917.00
2023-04-18T06:35:46.247Z,916.00
2023-04-18T06:36:46.030Z,917.00
2023-04-18T06:37:46.066Z,913.00
2023-04-18T06:38:46.238Z,909.00
2023-04-18T06:39:46.192Z,909.00
2023-04-18T06:40:46.236Z,914.00
2023-04-18T06:41:46.295Z,917.00
2023-04-18T06:42:46.349Z,921.00
2023-04-18T06:44:02.191Z,918.00
2023-04-18T06:44:46.409Z,905.00
2023-04-18T06:45:46.434Z,902.00
2023-04-18T06:46:46.806Z,904.00
2023-04-18T06:47:46.479Z,901.00
2023-04-18T06:48:46.418Z,901.00
2023-04-18T06:49:47.272Z,906.00
2023-04-18T06:50:46.434Z,911.00
2023-04-18T06:51:46.756Z,914.00
2023-04-18T06:52:46.750Z,913.00
2023-04-18T06:53:49.655Z,914.00
2023-04-18T06:54:46.913Z,918.00
2023-04-18T06:55:46.488Z,917.00
2023-04-18T06:56:46.555Z,918.00
2023-04-18T06:57:46.453Z,923.00
2023-04-18T06:58:46.753Z,926.00
2023-04-18T06:59:46.456Z,926.00
2023-04-18T07:00:46.817Z,929.00
2023-04-18T07:01:46.454Z,928.00
2023-04-18T07:02:46.695Z,926.00
2023-04-18T07:03:46.880Z,922.00
2023-04-18T07:04:46.492Z,925.00
2023-04-18T07:05:46.480Z,927.00
2023-04-18T07:06:46.437Z,928.00
2023-04-18T07:07:46.440Z,925.00
2023-04-18T07:08:46.753Z,929.00
2023-04-18T07:09:46.425Z,931.00
2023-04-18T07:10:46.418Z,927.00
2023-04-18T07:11:46.958Z,927.00
2023-04-18T07:12:46.413Z,923.00
2023-04-18T07:13:46.398Z,919.00
2023-04-18T07:14:46.400Z,920.00
2023-04-18T07:15:46.395Z,921.00
2023-04-18T07:16:46.428Z,924.00
2023-04-18T07:17:46.448Z,923.00
2023-04-18T07:18:46.468Z,918.00
2023-04-18T07:19:46.380Z,919.00
2023-04-18T07:20:46.376Z,924.00
2023-04-18T07:21:46.412Z,926.00
2023-04-18T07:22:46.362Z,927.00
2023-04-18T07:23:46.776Z,929.00
2023-04-18T07:24:46.359Z,934.00
2023-04-18T07:25:46.352Z,937.00
2023-04-18T07:26:46.360Z,938.00
2023-04-18T07:27:47.342Z,934.00
2023-04-18T07:28:46.789Z,935.00
2023-04-18T07:29:46.374Z,933.00
2023-04-18T07:30:46.386Z,930.00
2023-04-18T07:31:46.349Z,925.00
2023-04-18T07:32:46.374Z,923.00
2023-04-18T07:33:47.924Z,923.00
2023-04-18T07:34:46.451Z,927.00
2023-04-18T07:35:46.485Z,926.00
2023-04-18T07:36:46.533Z,937.00
2023-04-18T07:37:46.563Z,944.00
2023-04-18T07:38:46.592Z,946.00
2023-04-18T07:39:47.435Z,933.00
2023-04-18T07:40:46.762Z,931.00
2023-04-18T07:41:46.789Z,929.00
2023-04-18T07:42:46.846Z,929.00
2023-04-18T07:43:46.910Z,927.00
2023-04-18T07:44:47.274Z,925.00
2023-04-18T07:45:46.989Z,924.00
2023-04-18T07:46:47.187Z,927.00
2023-04-18T07:47:47.135Z,936.00
2023-04-18T07:48:47.269Z,938.00
2023-04-18T07:49:47.246Z,942.00
2023-04-18T07:50:47.768Z,940.00
2023-04-18T07:51:47.394Z,934.00
2023-04-18T07:52:47.423Z,928.00
2023-04-18T07:53:47.546Z,927.00
2023-04-18T07:54:48.767Z,925.00
2023-04-18T07:55:47.874Z,917.00
2023-04-18T07:56:47.641Z,901.00
2023-04-18T07:57:47.673Z,895.00
2023-04-18T07:58:47.753Z,885.00
2023-04-18T07:59:47.745Z,810.00
2023-04-18T08:00:47.840Z,796.00
2023-04-18T08:01:47.771Z,789.00
2023-04-18T08:02:47.909Z,730.00
2023-04-18T08:03:47.969Z,717.00
2023-04-18T08:04:47.955Z,712.00
2023-04-18T08:05:48.274Z,701.00
2023-04-18T08:06:47.825Z,684.00
2023-04-18T08:07:47.874Z,674.00
2023-04-18T08:08:48.290Z,667.00
2023-04-18T08:09:48.147Z,655.00
2023-04-18T08:10:47.889Z,651.00
2023-04-18T08:11:47.918Z,649.00
2023-04-18T08:12:47.959Z,642.00
2023-04-18T08:13:48.280Z,617.00
2023-04-18T08:14:47.979Z,615.00
2023-04-18T08:15:48.344Z,612.00
2023-04-18T08:16:48.205Z,607.00
2023-04-18T08:17:48.091Z,605.00
2023-04-18T08:18:48.068Z,604.00
2023-04-18T08:19:48.281Z,599.00
2023-04-18T08:20:48.137Z,596.00
2023-04-18T08:21:48.139Z,594.00
2023-04-18T08:23:05.261Z,591.00
2023-04-18T08:23:48.162Z,589.00
2023-04-18T08:25:01.424Z,586.00
2023-04-18T08:25:49.209Z,579.00
2023-04-18T08:26:48.166Z,575.00
2023-04-18T08:27:48.608Z,572.00
2023-04-18T08:28:48.196Z,570.00
2023-04-18T08:29:48.330Z,570.00
2023-04-18T08:30:48.193Z,577.00
2023-04-18T08:31:48.268Z,609.00
2023-04-18T08:32:48.173Z,645.00
2023-04-18T08:33:48.173Z,667.00
2023-04-18T08:34:48.294Z,708.00
2023-04-18T08:35:48.172Z,725.00
2023-04-18T08:36:48.162Z,736.00
2023-04-18T08:37:48.166Z,743.00
2023-04-18T08:38:48.164Z,783.00
2023-04-18T08:39:48.287Z,797.00
2023-04-18T08:40:48.151Z,802.00
2023-04-18T08:41:48.176Z,807.00
2023-04-18T08:42:48.146Z,822.00
2023-04-18T08:43:48.310Z,842.00
2023-04-18T08:44:48.317Z,851.00
2023-04-18T08:45:48.201Z,850.00
2023-04-18T08:46:48.143Z,843.00
2023-04-18T08:47:48.229Z,841.00
2023-04-18T08:48:48.138Z,897.00
2023-04-18T08:49:48.393Z,916.00
2023-04-18T08:50:48.137Z,907.00
2023-04-18T08:51:48.148Z,908.00
2023-04-18T08:52:48.136Z,913.00
2023-04-18T08:53:48.332Z,910.00
2023-04-18T08:54:48.154Z,908.00
2023-04-18T08:55:48.136Z,905.00
2023-04-18T08:56:48.173Z,906.00
2023-04-18T08:57:48.169Z,907.00
2023-04-18T08:58:48.326Z,910.00
2023-04-18T08:59:50.853Z,911.00
2023-04-18T09:00:48.144Z,909.00
2023-04-18T09:01:48.194Z,916.00
2023-04-18T09:02:48.451Z,914.00
2023-04-18T09:03:48.333Z,918.00
2023-04-18T09:04:48.134Z,919.00
2023-04-18T09:05:48.096Z,924.00
2023-04-18T09:06:48.090Z,927.00
2023-04-18T09:07:48.136Z,923.00
2023-04-18T09:08:48.303Z,908.00
2023-04-18T09:09:48.127Z,872.00
2023-04-18T09:10:48.062Z,874.00
2023-04-18T09:11:48.049Z,869.00
2023-04-18T09:12:48.326Z,858.00
2023-04-18T09:13:48.071Z,858.00
2023-04-18T09:14:48.036Z,857.00
2023-04-18T09:15:48.027Z,866.00
2023-04-18T09:16:48.047Z,868.00
2023-04-18T09:17:48.350Z,869.00
2023-04-18T09:18:48.124Z,871.00
2023-04-18T09:19:48.002Z,881.00
2023-04-18T09:20:47.985Z,877.00
2023-04-18T09:21:48.309Z,873.00
2023-04-18T09:22:47.969Z,873.00
2023-04-18T09:23:47.966Z,871.00
2023-04-18T09:24:47.951Z,865.00
2023-04-18T09:25:48.334Z,863.00
2023-04-18T09:26:48.302Z,862.00
2023-04-18T09:27:48.398Z,866.00
2023-04-18T09:28:47.944Z,867.00
2023-04-18T09:29:47.920Z,871.00
2023-04-18T09:30:47.936Z,866.00
2023-04-18T09:31:48.344Z,860.00
2023-04-18T09:32:48.342Z,883.00
2023-04-18T09:33:47.864Z,840.00
2023-04-18T09:34:47.865Z,738.00
2023-04-18T09:35:51.057Z,697.00
2023-04-18T09:36:48.352Z,672.00
2023-04-18T09:37:47.887Z,631.00
2023-04-18T09:38:47.852Z,616.00
2023-04-18T09:39:47.854Z,607.00
2023-04-18T09:40:48.317Z,599.00
2023-04-18T09:41:47.865Z,594.00
2023-04-18T09:42:48.855Z,589.00
2023-04-18T09:43:47.863Z,587.00
2023-04-18T09:44:47.861Z,581.00
2023-04-18T09:45:48.404Z,577.00
2023-04-18T09:46:47.941Z,577.00
2023-04-18T09:47:48.404Z,572.00
2023-04-18T09:48:47.864Z,569.00
2023-04-18T09:49:47.866Z,569.00
2023-04-18T09:50:47.894Z,569.00
2023-04-18T09:51:48.324Z,569.00
2023-04-18T09:52:47.859Z,561.00
2023-04-18T09:53:48.075Z,558.00
2023-04-18T09:54:48.318Z,550.00
2023-04-18T09:55:48.314Z,547.00
2023-04-18T09:56:47.849Z,543.00
2023-04-18T09:57:47.903Z,548.00
2023-04-18T09:58:47.909Z,551.00
2023-04-18T09:59:47.953Z,552.00
2023-04-18T10:00:48.317Z,552.00
2023-04-18T10:01:48.131Z,548.00
2023-04-18T10:02:48.464Z,546.00
2023-04-18T10:03:48.189Z,545.00
2023-04-18T10:04:48.281Z,542.00
2023-04-18T10:05:48.356Z,545.00
2023-04-18T10:06:48.250Z,547.00
2023-04-18T10:07:48.476Z,548.00
2023-04-18T10:08:48.344Z,547.00
2023-04-18T10:09:48.412Z,532.00
2023-04-18T10:10:48.859Z,521.00
2023-04-18T10:11:48.497Z,523.00
2023-04-18T10:12:48.552Z,528.00
2023-04-18T10:13:48.640Z,531.00
2023-04-18T10:14:48.819Z,532.00
2023-04-18T10:15:51.975Z,529.00
2023-04-18T10:16:50.622Z,527.00
2023-04-18T10:18:02.856Z,528.00
2023-04-18T10:18:48.710Z,525.00
2023-04-18T10:19:48.846Z,527.00
2023-04-18T10:20:48.718Z,532.00
2023-04-18T10:21:48.719Z,536.00
2023-04-18T10:22:48.870Z,530.00
2023-04-18T10:23:48.732Z,529.00
2023-04-18T10:24:48.853Z,535.00
2023-04-18T10:25:48.713Z,541.00
2023-04-18T10:26:48.878Z,544.00
2023-04-18T10:27:48.747Z,543.00
2023-04-18T10:28:48.830Z,544.00
2023-04-18T10:29:48.653Z,548.00
2023-04-18T10:30:48.650Z,558.00
2023-04-18T10:31:48.842Z,561.00
2023-04-18T10:32:48.648Z,562.00
2023-04-18T10:34:00.713Z,561.00
2023-04-18T10:34:48.625Z,556.00
2023-04-18T10:35:48.645Z,540.00
2023-04-18T10:36:48.907Z,533.00
2023-04-18T10:37:48.662Z,523.00
2023-04-18T10:38:48.616Z,503.00
2023-04-18T10:39:48.607Z,498.00
2023-04-18T10:40:48.752Z,492.00
2023-04-18T10:41:50.495Z,489.00
2023-04-18T10:42:48.837Z,479.00
2023-04-18T10:43:48.609Z,474.00
2023-04-18T10:44:48.613Z,467.00
2023-04-18T10:45:49.217Z,465.00
2023-04-18T10:46:48.706Z,461.00
2023-04-18T10:47:48.754Z,460.00
2023-04-18T10:48:48.622Z,459.00
2023-04-18T10:49:48.710Z,455.00
2023-04-18T10:50:48.635Z,453.00
2023-04-18T10:51:49.438Z,453.00
2023-04-18T10:52:48.636Z,451.00
2023-04-18T10:53:48.642Z,451.00
2023-04-18T10:54:48.975Z,448.00
2023-04-18T10:55:48.645Z,443.00
2023-04-18T10:56:48.968Z,441.00
2023-04-18T10:57:48.838Z,439.00
2023-04-18T10:58:48.654Z,437.00
2023-04-18T10:59:48.656Z,436.00
2023-04-18T11:00:48.683Z,435.00
2023-04-18T11:01:48.837Z,435.00
2023-04-18T11:02:48.825Z,435.00
2023-04-18T11:03:48.866Z,434.00
2023-04-18T11:04:48.687Z,434.00
2023-04-18T11:05:48.778Z,433.00
2023-04-18T11:06:48.843Z,433.00
2023-04-18T11:07:48.724Z,430.00
2023-04-18T11:08:48.699Z,431.00
2023-04-18T11:09:48.842Z,433.00
2023-04-18T11:10:48.715Z,432.00
2023-04-18T11:11:48.846Z,431.00
2023-04-18T11:12:48.730Z,429.00
2023-04-18T11:13:48.724Z,431.00
2023-04-18T11:14:48.765Z,430.00
2023-04-18T11:15:48.719Z,430.00
2023-04-18T11:16:48.907Z,425.00
2023-04-18T11:17:48.745Z,427.00
2023-04-18T11:18:48.730Z,429.00
2023-04-18T11:19:48.880Z,428.00
2023-04-18T11:20:48.723Z,429.00
2023-04-18T11:21:48.900Z,429.00
2023-04-18T11:22:48.736Z,431.00
2023-04-18T11:23:48.812Z,433.00
2023-04-18T11:24:48.785Z,434.00
2023-04-18T11:25:48.819Z,436.00
2023-04-18T11:26:49.353Z,438.00
2023-04-18T11:27:48.901Z,441.00
2023-04-18T11:28:48.934Z,444.00
2023-04-18T11:29:48.989Z,445.00
2023-04-18T11:30:49.044Z,444.00
2023-04-18T11:31:49.422Z,445.00
2023-04-18T11:32:49.162Z,448.00
2023-04-18T11:33:49.354Z,448.00
2023-04-18T11:34:49.189Z,447.00
2023-04-18T11:35:49.227Z,447.00
2023-04-18T11:36:49.280Z,448.00
2023-04-18T11:37:49.353Z,450.00
2023-04-18T11:38:49.355Z,450.00
2023-04-18T11:39:49.373Z,448.00
2023-04-18T11:40:50.462Z,446.00
2023-04-18T11:41:49.860Z,445.00
2023-04-18T11:42:49.491Z,444.00
2023-04-18T11:43:49.856Z,442.00
2023-04-18T11:44:49.576Z,440.00
2023-04-18T11:45:49.677Z,440.00
2023-04-18T11:46:49.669Z,440.00
2023-04-18T11:47:49.918Z,439.00
2023-04-18T11:48:49.747Z,440.00
2023-04-18T11:49:49.791Z,439.00
2023-04-18T11:50:49.832Z,440.00
2023-04-18T11:51:49.917Z,438.00
2023-04-18T11:52:49.941Z,438.00
2023-04-18T11:53:50.009Z,437.00
2023-04-18T11:54:50.017Z,436.00
2023-04-18T11:55:50.071Z,432.00
2023-04-18T11:56:50.385Z,431.00
2023-04-18T11:57:50.161Z,431.00
2023-04-18T11:58:50.214Z,440.00
2023-04-18T11:59:50.378Z,448.00
2023-04-18T12:00:50.364Z,482.00
2023-04-18T12:01:50.974Z,506.00
2023-04-18T12:02:50.545Z,514.00
2023-04-18T12:03:50.633Z,515.00
2023-04-18T12:04:50.801Z,516.00
2023-04-18T12:05:50.787Z,520.00
2023-04-18T12:06:50.954Z,520.00
2023-04-18T12:07:50.716Z,521.00
2023-04-18T12:08:51.904Z,525.00
2023-04-18T12:09:50.839Z,523.00
2023-04-18T12:10:50.801Z,520.00
2023-04-18T12:11:50.930Z,518.00
2023-04-18T12:12:50.842Z,518.00
2023-04-18T12:13:50.963Z,516.00
2023-04-18T12:14:50.877Z,512.00
2023-04-18T12:15:50.926Z,506.00
2023-04-18T12:16:50.901Z,506.00
2023-04-18T12:17:51.448Z,504.00
2023-04-18T12:18:51.416Z,503.00
2023-04-18T12:19:50.982Z,500.00
2023-04-18T12:20:50.918Z,501.00
2023-04-18T12:21:50.917Z,496.00
2023-04-18T12:22:51.402Z,492.00
2023-04-18T12:23:51.386Z,490.00
2023-04-18T12:24:51.050Z,488.00
2023-04-18T12:25:52.896Z,484.00
2023-04-18T12:26:51.404Z,486.00
2023-04-18T12:27:51.156Z,485.00
2023-04-18T12:28:51.269Z,486.00
2023-04-18T12:29:51.206Z,486.00
2023-04-18T12:30:51.202Z,486.00
2023-04-18T12:31:51.585Z,486.00